Itaguai, Brazil
Current Conditions -  °F | °C
As of 8:00 PM on Saturday 25 Oct 2014 (Local Time) from SBSC Reporting Station
Broken Clouds Broken Clouds  
Wind Chill: 73°   Ceiling: 10000
Heat Index: 73°   Visibility: 6mi
Dew Point: 68°   Wind: 2mph
Humidity: 83%   Direction: 210°SSW
Pressure: 29.91"   Gusts: NA
Location:  22.87°S, 43.78°W
Report Text: SBSC 252200Z 21002KT 9999 SCT030 BKN100 23/20 Q1013
Loading
Personal Weather Stations






























Interactive Weather Map
Tropical Storm Tracking
New forecast layout! Learn more

10-Day Weather Forecast

Advertisements
Track Severe Weather on mobile